Time,TemperatureF,DewpointF,PressureIn,WindDirection,WindDirectionDegrees,WindSpeedMPH,WindSpeedGustMPH,Humidity,HourlyPrecipIn,Conditions,Clouds,dailyrainin,SoftwareType,DateUTC
2013-08-29 00:01:00,64.0,63.1,29.91,NE,56,0.0,0.0,97,0.00,,,0.00,Wunderground v.1.15,2013-08-29 04:01:00,
2013-08-29 00:02:00,64.0,63.0,29.91,NE,56,0.0,0.0,97,0.00,,,0.00,weatherlink.com 1.10,2013-08-29 04:02:00,
2013-08-29 00:04:00,63.9,63.0,29.91,NE,56,0.0,0.0,97,0.00,,,0.00,Wunderground v.1.15,2013-08-29 04:04:00,
2013-08-29 00:07:00,63.9,63.0,29.91,NE,56,0.0,0.0,97,0.00,,,0.00,Wunderground v.1.15,2013-08-29 04:07:00,
2013-08-29 00:08:00,63.9,63.0,29.92,NE,56,0.0,0.0,97,0.00,,,0.00,Wunderground v.1.15,2013-08-29 04:08:00,
2013-08-29 00:13:00,63.9,63.0,29.92,NE,56,0.0,0.0,97,0.00,,,0.00,Wunderground v.1.15,2013-08-29 04:13:00,
2013-08-29 00:19:00,63.7,62.8,29.92,NE,56,0.0,0.0,97,0.00,,,0.00,Wunderground v.1.15,2013-08-29 04:19:00,
2013-08-29 00:24:00,63.6,62.7,29.92,NE,56,0.0,0.0,97,0.00,,,0.00,Wunderground v.1.15,2013-08-29 04:24:00,
2013-08-29 00:26:00,63.6,62.7,29.92,NE,56,0.0,0.0,97,0.00,,,0.00,Wunderground v.1.15,2013-08-29 04:26:00,
2013-08-29 00:33:00,63.3,62.4,29.92,NE,56,0.0,0.0,97,0.00,,,0.00,Wunderground v.1.15,2013-08-29 04:33:00,
2013-08-29 00:38:00,63.3,62.4,29.92,NE,56,0.0,0.0,97,0.00,,,0.00,Wunderground v.1.15,2013-08-29 04:38:00,
2013-08-29 00:44:00,63.2,62.3,29.92,NE,56,0.0,0.0,97,0.00,,,0.00,Wunderground v.1.15,2013-08-29 04:44:00,
2013-08-29 00:50:00,63.2,62.3,29.91,NE,56,0.0,0.0,97,0.00,,,0.00,Wunderground v.1.15,2013-08-29 04:50:00,
2013-08-29 00:56:00,63.0,62.1,29.91,NE,56,0.0,0.0,97,0.00,,,0.00,Wunderground v.1.15,2013-08-29 04:56:00,
2013-08-29 01:02:00,63.0,62.0,29.91,NE,56,0.0,0.0,97,0.00,,,0.00,weatherlink.com 1.10,2013-08-29 05:02:00,
2013-08-29 01:07:00,62.9,62.0,29.91,NE,56,0.0,0.0,97,0.00,,,0.00,Wunderground v.1.15,2013-08-29 05:07:00,
2013-08-29 01:13:00,62.9,62.0,29.91,NE,56,0.0,0.0,97,0.00,,,0.00,Wunderground v.1.15,2013-08-29 05:13:00,
2013-08-29 01:19:00,62.8,61.9,29.91,NE,56,0.0,0.0,97,0.00,,,0.00,Wunderground v.1.15,2013-08-29 05:19:00,
2013-08-29 01:25:00,62.8,61.9,29.92,NE,56,0.0,0.0,97,0.00,,,0.00,Wunderground v.1.15,2013-08-29 05:25:00,
2013-08-29 01:31:00,62.7,61.8,29.92,NE,56,0.0,0.0,97,0.00,,,0.00,Wunderground v.1.15,2013-08-29 05:31:00,
2013-08-29 01:36:00,62.5,61.6,29.92,NE,56,0.0,0.0,97,0.00,,,0.00,Wunderground v.1.15,2013-08-29 05:36:00,
2013-08-29 01:42:00,62.4,61.5,29.92,NE,56,0.0,0.0,97,0.00,,,0.00,Wunderground v.1.15,2013-08-29 05:42:00,
2013-08-29 01:47:00,62.3,62.0,29.92,NE,56,0.0,0.0,97,0.00,,,0.00,weatherlink.com 1.10,2013-08-29 05:47:00,
2013-08-29 01:53:00,62.2,61.3,29.92,NE,56,0.0,0.0,97,0.00,,,0.00,Wunderground v.1.15,2013-08-29 05:53:00,
2013-08-29 01:59:00,62.1,61.2,29.92,NE,56,0.0,0.0,97,0.00,,,0.00,Wunderground v.1.15,2013-08-29 05:59:00,
2013-08-29 02:04:00,62.2,61.6,29.92,NE,56,0.0,0.0,98,0.00,,,0.00,Wunderground v.1.15,2013-08-29 06:04:00,
2013-08-29 02:09:00,62.3,61.7,29.92,NE,56,0.0,0.0,98,0.00,,,0.00,Wunderground v.1.15,2013-08-29 06:09:00,
2013-08-29 02:15:00,62.4,61.8,29.92,NE,56,0.0,0.0,98,0.00,,,0.00,Wunderground v.1.15,2013-08-29 06:15:00,
2013-08-29 02:20:00,62.4,61.8,29.92,NE,56,0.0,0.0,98,0.00,,,0.00,Wunderground v.1.15,2013-08-29 06:20:00,
2013-08-29 02:26:00,62.5,61.9,29.92,NE,56,0.0,0.0,98,0.00,,,0.00,Wunderground v.1.15,2013-08-29 06:26:00,
2013-08-29 02:31:00,62.5,61.9,29.92,NE,56,0.0,0.0,98,0.00,,,0.00,Wunderground v.1.15,2013-08-29 06:31:00,
2013-08-29 02:37:00,62.6,62.0,29.92,NE,56,0.0,0.0,98,0.00,,,0.00,Wunderground v.1.15,2013-08-29 06:37:00,
2013-08-29 02:43:00,62.6,62.0,29.92,NE,56,0.0,0.0,98,0.00,,,0.00,Wunderground v.1.15,2013-08-29 06:43:00,
2013-08-29 02:49:00,62.6,62.0,29.92,NE,56,0.0,0.0,98,0.00,,,0.00,Wunderground v.1.15,2013-08-29 06:49:00,
2013-08-29 02:55:00,62.7,62.1,29.93,NE,56,0.0,0.0,98,0.00,,,0.00,Wunderground v.1.15,2013-08-29 06:55:00,
2013-08-29 03:00:00,62.8,62.2,29.93,NE,56,0.0,0.0,98,0.00,,,0.00,Wunderground v.1.15,2013-08-29 07:00:00,
2013-08-29 03:06:00,62.9,62.3,29.93,NE,56,0.0,0.0,98,0.00,,,0.00,Wunderground v.1.15,2013-08-29 07:06:00,
2013-08-29 03:12:00,63.0,62.4,29.93,NE,56,0.0,0.0,98,0.00,,,0.00,Wunderground v.1.15,2013-08-29 07:12:00,
2013-08-29 03:18:00,62.9,62.3,29.93,NE,56,0.0,0.0,98,0.00,,,0.00,Wunderground v.1.15,2013-08-29 07:18:00,
2013-08-29 03:24:00,62.9,62.3,29.93,NE,56,0.0,0.0,98,0.00,,,0.00,Wunderground v.1.15,2013-08-29 07:24:00,
2013-08-29 03:29:00,63.0,62.4,29.93,NE,56,0.0,0.0,98,0.00,,,0.00,Wunderground v.1.15,2013-08-29 07:29:00,
2013-08-29 03:34:00,63.1,62.5,29.93,NE,56,0.0,0.0,98,0.00,,,0.00,Wunderground v.1.15,2013-08-29 07:34:00,
2013-08-29 03:40:00,63.1,62.5,29.93,NE,56,0.0,0.0,98,0.00,,,0.00,Wunderground v.1.15,2013-08-29 07:40:00,
2013-08-29 03:46:00,63.0,62.4,29.93,NE,56,0.0,0.0,98,0.00,,,0.00,Wunderground v.1.15,2013-08-29 07:46:00,
2013-08-29 03:51:00,63.0,62.4,29.93,NE,56,0.0,0.0,98,0.00,,,0.00,Wunderground v.1.15,2013-08-29 07:51:00,
2013-08-29 03:57:00,63.0,62.4,29.93,NE,56,0.0,0.0,98,0.00,,,0.00,Wunderground v.1.15,2013-08-29 07:57:00,
2013-08-29 04:02:00,63.1,63.0,29.93,NE,56,0.0,0.0,98,0.00,,,0.00,weatherlink.com 1.10,2013-08-29 08:02:00,
2013-08-29 04:07:00,63.1,62.5,29.93,NE,56,0.0,0.0,98,0.00,,,0.00,Wunderground v.1.15,2013-08-29 08:07:00,
2013-08-29 04:13:00,63.1,62.5,29.93,NE,56,0.0,0.0,98,0.00,,,0.00,Wunderground v.1.15,2013-08-29 08:13:00,
2013-08-29 04:19:00,63.0,62.4,29.93,NE,56,0.0,0.0,98,0.00,,,0.00,Wunderground v.1.15,2013-08-29 08:19:00,
2013-08-29 04:24:00,62.9,62.3,29.94,NE,56,0.0,0.0,98,0.00,,,0.00,Wunderground v.1.15,2013-08-29 08:24:00,
2013-08-29 04:30:00,62.8,62.2,29.93,NE,56,0.0,0.0,98,0.00,,,0.00,Wunderground v.1.15,2013-08-29 08:30:00,
2013-08-29 04:36:00,62.6,62.0,29.93,NE,56,0.0,0.0,98,0.00,,,0.00,Wunderground v.1.15,2013-08-29 08:36:00,
2013-08-29 04:41:00,62.5,61.9,29.94,NE,56,0.0,0.0,98,0.00,,,0.00,Wunderground v.1.15,2013-08-29 08:41:00,
2013-08-29 04:47:00,62.3,61.7,29.94,NE,56,0.0,0.0,98,0.00,,,0.00,Wunderground v.1.15,2013-08-29 08:47:00,
2013-08-29 04:52:00,62.3,61.7,29.94,NE,56,0.0,0.0,98,0.00,,,0.00,Wunderground v.1.15,2013-08-29 08:52:00,
2013-08-29 04:58:00,62.2,61.6,29.94,NE,56,0.0,0.0,98,0.00,,,0.00,Wunderground v.1.15,2013-08-29 08:58:00,
2013-08-29 05:04:00,62.1,62.0,29.94,NE,56,0.0,0.0,98,0.00,,,0.00,weatherlink.com 1.10,2013-08-29 09:04:00,
2013-08-29 05:09:00,62.0,61.4,29.94,NE,56,0.0,0.0,98,0.00,,,0.00,Wunderground v.1.15,2013-08-29 09:09:00,
2013-08-29 05:14:00,62.0,61.4,29.94,NE,56,0.0,0.0,98,0.00,,,0.00,Wunderground v.1.15,2013-08-29 09:14:00,
2013-08-29 05:20:00,61.9,61.3,29.94,NE,56,0.0,0.0,98,0.00,,,0.00,Wunderground v.1.15,2013-08-29 09:20:00,
2013-08-29 05:26:00,61.7,61.1,29.94,NE,56,0.0,0.0,98,0.00,,,0.00,Wunderground v.1.15,2013-08-29 09:26:00,
2013-08-29 05:31:00,61.6,61.0,29.94,NE,56,0.0,0.0,98,0.00,,,0.00,Wunderground v.1.15,2013-08-29 09:31:00,
2013-08-29 05:37:00,61.4,60.8,29.94,NE,56,0.0,0.0,98,0.00,,,0.00,Wunderground v.1.15,2013-08-29 09:37:00,
2013-08-29 05:42:00,61.3,60.7,29.95,NE,56,0.0,0.0,98,0.00,,,0.00,Wunderground v.1.15,2013-08-29 09:42:00,
2013-08-29 05:48:00,61.2,61.0,29.95,NE,56,0.0,0.0,98,0.00,,,0.00,weatherlink.com 1.10,2013-08-29 09:48:00,
2013-08-29 05:53:00,61.1,60.5,29.95,NE,56,0.0,0.0,98,0.00,,,0.00,Wunderground v.1.15,2013-08-29 09:53:00,
2013-08-29 05:58:00,61.0,60.4,29.95,NE,56,0.0,0.0,98,0.00,,,0.00,Wunderground v.1.15,2013-08-29 09:58:00,
2013-08-29 06:04:00,60.9,60.0,29.95,NE,56,0.0,0.0,98,0.00,,,0.00,weatherlink.com 1.10,2013-08-29 10:04:00,
2013-08-29 06:09:00,60.9,60.3,29.95,NE,56,0.0,0.0,98,0.00,,,0.00,Wunderground v.1.15,2013-08-29 10:09:00,
2013-08-29 06:15:00,60.8,60.2,29.95,NE,56,0.0,0.0,98,0.00,,,0.00,Wunderground v.1.15,2013-08-29 10:15:00,
2013-08-29 06:20:00,60.7,60.1,29.95,NE,56,0.0,0.0,98,0.00,,,0.00,Wunderground v.1.15,2013-08-29 10:20:00,
2013-08-29 06:26:00,60.7,60.1,29.96,NE,56,0.0,0.0,98,0.00,,,0.00,Wunderground v.1.15,2013-08-29 10:26:00,
2013-08-29 06:31:00,60.7,60.1,29.96,NE,56,0.0,0.0,98,0.00,,,0.00,Wunderground v.1.15,2013-08-29 10:31:00,
2013-08-29 06:37:00,60.6,60.0,29.96,NE,56,0.0,0.0,98,0.00,,,0.00,Wunderground v.1.15,2013-08-29 10:37:00,
2013-08-29 06:43:00,60.6,60.0,29.96,NE,56,0.0,0.0,98,0.00,,,0.00,Wunderground v.1.15,2013-08-29 10:43:00,
2013-08-29 06:48:00,60.6,60.0,29.97,NE,56,0.0,0.0,98,0.00,,,0.00,Wunderground v.1.15,2013-08-29 10:48:00,
2013-08-29 06:53:00,60.6,60.0,29.97,NE,56,0.0,0.0,98,0.00,,,0.00,Wunderground v.1.15,2013-08-29 10:53:00,
2013-08-29 06:59:00,60.7,60.1,29.97,NE,56,0.0,0.0,98,0.00,,,0.00,Wunderground v.1.15,2013-08-29 10:59:00,
2013-08-29 07:05:00,60.7,60.1,29.97,NE,56,0.0,0.0,98,0.00,,,0.00,Wunderground v.1.15,2013-08-29 11:05:00,
2013-08-29 07:10:00,60.7,60.1,29.97,NE,56,0.0,0.0,98,0.00,,,0.00,Wunderground v.1.15,2013-08-29 11:10:00,
2013-08-29 07:16:00,60.8,60.2,29.98,NE,56,0.0,0.0,98,0.00,,,0.00,Wunderground v.1.15,2013-08-29 11:16:00,
2013-08-29 07:21:00,60.9,60.3,29.98,NE,56,0.0,0.0,98,0.00,,,0.00,Wunderground v.1.15,2013-08-29 11:21:00,
2013-08-29 07:27:00,61.1,60.5,29.98,NE,56,0.0,0.0,98,0.00,,,0.00,Wunderground v.1.15,2013-08-29 11:27:00,
2013-08-29 07:33:00,61.5,61.2,29.98,NE,56,0.0,0.0,99,0.00,,,0.00,Wunderground v.1.15,2013-08-29 11:33:00,
2013-08-29 07:39:00,61.6,61.3,29.98,NE,56,0.0,0.0,99,0.00,,,0.00,Wunderground v.1.15,2013-08-29 11:39:00,
2013-08-29 07:45:00,61.8,61.5,29.98,NE,56,0.0,0.0,99,0.00,,,0.00,Wunderground v.1.15,2013-08-29 11:45:00,
2013-08-29 07:51:00,62.1,61.8,29.99,NE,56,0.0,0.0,99,0.00,,,0.00,Wunderground v.1.15,2013-08-29 11:51:00,
2013-08-29 07:57:00,62.4,62.1,29.99,NE,56,0.0,0.0,99,0.00,,,0.00,Wunderground v.1.15,2013-08-29 11:57:00,
2013-08-29 08:02:00,62.7,62.4,29.99,NE,56,0.0,0.0,99,0.00,,,0.00,Wunderground v.1.15,2013-08-29 12:02:00,
2013-08-29 08:08:00,63.3,63.0,29.99,NE,56,0.0,0.0,99,0.00,,,0.00,Wunderground v.1.15,2013-08-29 12:08:00,
2013-08-29 08:14:00,63.8,63.5,29.99,NE,56,0.0,0.0,99,0.00,,,0.00,Wunderground v.1.15,2013-08-29 12:14:00,
2013-08-29 08:19:00,64.0,64.0,29.99,NE,56,0.0,0.0,99,0.00,,,0.00,weatherlink.com 1.10,2013-08-29 12:19:00,
2013-08-29 08:25:00,64.6,64.3,29.99,NE,56,0.0,0.0,99,0.00,,,0.00,Wunderground v.1.15,2013-08-29 12:25:00,
2013-08-29 08:31:00,65.3,65.0,29.99,NE,56,0.0,0.0,99,0.00,,,0.00,Wunderground v.1.15,2013-08-29 12:31:00,
2013-08-29 08:36:00,65.8,65.5,29.99,NE,56,0.0,0.0,99,0.00,,,0.00,Wunderground v.1.15,2013-08-29 12:36:00,
2013-08-29 08:42:00,66.3,66.0,30.00,NE,56,0.0,0.0,99,0.00,,,0.00,Wunderground v.1.15,2013-08-29 12:42:00,
2013-08-29 08:48:00,67.0,66.7,30.00,NE,56,0.0,0.0,99,0.00,,,0.00,Wunderground v.1.15,2013-08-29 12:48:00,
2013-08-29 08:53:00,67.6,67.3,30.00,NE,56,0.0,0.0,99,0.00,,,0.00,Wunderground v.1.15,2013-08-29 12:53:00,
2013-08-29 08:59:00,68.3,67.4,30.00,NE,56,0.0,0.0,97,0.00,,,0.00,Wunderground v.1.15,2013-08-29 12:59:00,
2013-08-29 09:04:00,69.0,68.0,30.00,NE,56,0.0,0.0,97,0.00,,,0.00,weatherlink.com 1.10,2013-08-29 13:04:00,
2013-08-29 09:09:00,69.6,68.1,30.00,NE,49,0.0,0.0,95,0.00,,,0.00,Wunderground v.1.15,2013-08-29 13:09:00,
2013-08-29 09:15:00,70.2,68.4,30.00,NE,49,0.0,0.0,94,0.00,,,0.00,Wunderground v.1.15,2013-08-29 13:15:00,
2013-08-29 09:21:00,71.0,69.2,30.00,NE,50,0.0,0.0,94,0.00,,,0.00,Wunderground v.1.15,2013-08-29 13:21:00,
2013-08-29 09:26:00,71.5,69.4,30.00,NE,41,0.0,0.0,93,0.00,,,0.00,Wunderground v.1.15,2013-08-29 13:26:00,
2013-08-29 09:32:00,72.4,69.9,30.00,NE,42,0.0,0.0,92,0.00,,,0.00,Wunderground v.1.15,2013-08-29 13:32:00,
2013-08-29 09:37:00,73.2,70.4,30.00,NE,35,0.0,0.0,91,0.00,,,0.00,Wunderground v.1.15,2013-08-29 13:37:00,
2013-08-29 09:43:00,73.2,70.1,30.00,NNE,21,0.0,0.0,90,0.00,,,0.00,Wunderground v.1.15,2013-08-29 13:43:00,
2013-08-29 09:48:00,73.7,70.9,30.00,NNE,31,0.0,0.0,91,0.00,,,0.00,Wunderground v.1.15,2013-08-29 13:48:00,
2013-08-29 09:54:00,74.5,71.0,30.00,NNE,31,0.0,0.0,89,0.00,,,0.00,Wunderground v.1.15,2013-08-29 13:54:00,
2013-08-29 10:00:00,75.1,71.3,30.00,NW,314,0.0,0.0,88,0.00,,,0.00,Wunderground v.1.15,2013-08-29 14:00:00,
2013-08-29 10:06:00,75.7,71.6,30.00,NNW,347,0.0,1.0,87,0.00,,,0.00,Wunderground v.1.15,2013-08-29 14:06:00,
2013-08-29 10:12:00,76.1,70.9,30.00,NNE,23,0.0,0.0,84,0.00,,,0.00,Wunderground v.1.15,2013-08-29 14:12:00,
2013-08-29 10:17:00,76.5,70.6,30.00,NW,310,0.0,0.0,82,0.00,,,0.00,Wunderground v.1.15,2013-08-29 14:17:00,
2013-08-29 10:23:00,77.4,71.0,30.00,SSE,149,0.0,1.0,81,0.00,,,0.00,weatherlink.com 1.10,2013-08-29 14:23:00,
2013-08-29 10:29:00,77.4,70.0,30.00,NE,39,1.0,1.0,78,0.00,,,0.00,Wunderground v.1.15,2013-08-29 14:29:00,
2013-08-29 10:34:00,77.5,69.7,30.00,NE,37,1.0,2.0,77,0.00,,,0.00,Wunderground v.1.15,2013-08-29 14:34:00,
2013-08-29 10:40:00,78.3,70.5,30.00,NW,314,0.0,1.0,77,0.00,,,0.00,Wunderground v.1.15,2013-08-29 14:40:00,
2013-08-29 10:46:00,78.6,69.6,30.00,WNW,297,0.0,1.0,74,0.00,,,0.00,Wunderground v.1.15,2013-08-29 14:46:00,
2013-08-29 10:51:00,79.2,71.0,30.00,NE,47,0.0,2.0,76,0.00,,,0.00,Wunderground v.1.15,2013-08-29 14:51:00,
2013-08-29 10:57:00,78.9,70.3,30.00,ENE,58,1.0,2.0,75,0.00,,,0.00,Wunderground v.1.15,2013-08-29 14:57:00,
2013-08-29 11:02:00,78.8,69.4,30.00,ENE,58,1.0,2.0,73,0.00,,,0.00,Wunderground v.1.15,2013-08-29 15:02:00,
2013-08-29 11:08:00,79.1,70.9,30.00,ENE,58,1.0,2.0,76,0.00,,,0.00,Wunderground v.1.15,2013-08-29 15:08:00,
2013-08-29 11:13:00,79.6,71.4,30.00,SSE,157,1.0,1.0,76,0.00,,,0.00,Wunderground v.1.15,2013-08-29 15:13:00,
2013-08-29 11:19:00,80.3,70.9,30.00,WSW,240,0.0,1.0,73,0.00,,,0.00,Wunderground v.1.15,2013-08-29 15:19:00,
2013-08-29 11:25:00,80.5,70.2,30.00,North,349,1.0,3.0,71,0.00,,,0.00,Wunderground v.1.15,2013-08-29 15:25:00,
2013-08-29 11:30:00,80.5,72.2,30.00,NE,45,1.0,1.0,76,0.00,,,0.00,Wunderground v.1.15,2013-08-29 15:30:00,
2013-08-29 11:36:00,81.1,70.0,30.00,NE,51,1.0,3.0,69,0.00,,,0.00,weatherlink.com 1.10,2013-08-29 15:36:00,
2013-08-29 11:41:00,80.7,70.0,30.00,North,349,1.0,4.0,70,0.00,,,0.00,Wunderground v.1.15,2013-08-29 15:41:00,
2013-08-29 11:47:00,80.3,70.9,30.00,North,6,1.0,4.0,73,0.00,,,0.00,Wunderground v.1.15,2013-08-29 15:47:00,
2013-08-29 11:52:00,81.0,71.1,30.00,NE,46,1.0,2.0,72,0.00,,,0.00,Wunderground v.1.15,2013-08-29 15:52:00,
2013-08-29 11:58:00,81.6,70.9,30.00,North,360,1.0,2.0,70,0.00,,,0.00,Wunderground v.1.15,2013-08-29 15:58:00,
2013-08-29 12:04:00,81.7,70.5,30.00,NE,34,1.0,1.0,69,0.00,,,0.00,Wunderground v.1.15,2013-08-29 16:04:00,
2013-08-29 12:10:00,81.4,69.8,30.01,ENE,59,1.0,2.0,68,0.00,,,0.00,Wunderground v.1.15,2013-08-29 16:10:00,
2013-08-29 12:15:00,80.9,69.8,30.01,NNW,345,2.0,2.0,69,0.00,,,0.00,Wunderground v.1.15,2013-08-29 16:15:00,
2013-08-29 12:21:00,81.5,71.0,30.01,NNE,15,5.0,6.0,70,0.00,,,0.00,weatherlink.com 1.10,2013-08-29 16:21:00,
2013-08-29 12:26:00,81.8,71.1,30.00,NNE,20,2.0,4.0,70,0.00,,,0.00,Wunderground v.1.15,2013-08-29 16:26:00,
2013-08-29 12:32:00,81.6,69.6,30.00,NE,47,2.0,2.0,67,0.00,,,0.00,Wunderground v.1.15,2013-08-29 16:32:00,
2013-08-29 12:38:00,81.0,69.9,30.00,NNE,27,1.0,2.0,69,0.00,,,0.00,Wunderground v.1.15,2013-08-29 16:38:00,
2013-08-29 12:44:00,81.3,70.2,30.00,NE,41,1.0,5.0,69,0.00,,,0.00,Wunderground v.1.15,2013-08-29 16:44:00,
2013-08-29 12:49:00,81.8,70.2,30.00,ENE,58,1.0,5.0,68,0.00,,,0.00,Wunderground v.1.15,2013-08-29 16:49:00,
2013-08-29 12:55:00,82.3,70.2,30.00,NE,48,1.0,4.0,67,0.00,,,0.00,Wunderground v.1.15,2013-08-29 16:55:00,
2013-08-29 13:00:00,82.5,68.6,30.00,NE,53,1.0,1.0,63,0.00,,,0.00,Wunderground v.1.15,2013-08-29 17:00:00,
2013-08-29 13:06:00,82.8,67.0,30.00,SE,129,0.0,4.0,60,0.00,,,0.00,weatherlink.com 1.10,2013-08-29 17:06:00,
2013-08-29 13:12:00,83.2,69.8,29.99,ENE,57,0.0,0.0,64,0.00,,,0.00,Wunderground v.1.15,2013-08-29 17:12:00,
2013-08-29 13:17:00,82.8,68.4,30.00,NNW,348,0.0,0.0,62,0.00,,,0.00,Wunderground v.1.15,2013-08-29 17:17:00,
2013-08-29 13:23:00,83.0,70.0,30.00,NE,41,0.0,1.0,65,0.00,,,0.00,Wunderground v.1.15,2013-08-29 17:23:00,
2013-08-29 13:28:00,82.3,69.4,30.00,North,7,1.0,2.0,65,0.00,,,0.00,Wunderground v.1.15,2013-08-29 17:28:00,
2013-08-29 13:34:00,82.4,69.9,29.99,North,356,1.0,1.0,66,0.00,,,0.00,Wunderground v.1.15,2013-08-29 17:34:00,
2013-08-29 13:39:00,82.8,68.0,29.99,ENE,58,0.0,1.0,61,0.00,,,0.00,Wunderground v.1.15,2013-08-29 17:39:00,
2013-08-29 13:45:00,82.8,68.4,29.99,ENE,60,0.0,0.0,62,0.00,,,0.00,Wunderground v.1.15,2013-08-29 17:45:00,
2013-08-29 13:51:00,82.9,67.0,29.99,NNE,21,0.0,0.0,59,0.00,,,0.00,weatherlink.com 1.10,2013-08-29 17:51:00,
2013-08-29 13:56:00,82.3,66.5,29.99,NNW,342,0.0,0.0,59,0.00,,,0.00,Wunderground v.1.15,2013-08-29 17:56:00,
2013-08-29 14:02:00,82.3,67.5,29.99,ENE,58,0.0,2.0,61,0.00,,,0.00,Wunderground v.1.15,2013-08-29 18:02:00,
2013-08-29 14:07:00,82.4,66.0,29.98,North,8,0.0,3.0,58,0.00,,,0.00,weatherlink.com 1.10,2013-08-29 18:07:00,
2013-08-29 14:13:00,82.8,65.0,29.98,North,360,0.0,0.0,55,0.00,,,0.00,Wunderground v.1.15,2013-08-29 18:13:00,
2013-08-29 14:19:00,83.2,66.4,29.98,NNW,344,0.0,0.0,57,0.00,,,0.00,Wunderground v.1.15,2013-08-29 18:19:00,
2013-08-29 14:25:00,83.4,67.1,29.98,NE,47,0.0,0.0,58,0.00,,,0.00,Wunderground v.1.15,2013-08-29 18:25:00,
2013-08-29 14:31:00,83.2,66.4,29.98,NNE,25,0.0,0.0,57,0.00,,,0.00,Wunderground v.1.15,2013-08-29 18:31:00,
2013-08-29 14:36:00,83.6,68.0,29.98,ENE,63,0.0,0.0,59,0.00,,,0.00,weatherlink.com 1.10,2013-08-29 18:36:00,
2013-08-29 14:42:00,83.4,68.5,29.98,NNE,24,0.0,0.0,61,0.00,,,0.00,Wunderground v.1.15,2013-08-29 18:42:00,
2013-08-29 14:47:00,83.3,69.8,29.98,ENE,62,0.0,0.0,64,0.00,,,0.00,Wunderground v.1.15,2013-08-29 18:47:00,
2013-08-29 14:53:00,82.8,68.9,29.98,NE,52,0.0,0.0,63,0.00,,,0.00,Wunderground v.1.15,2013-08-29 18:53:00,
2013-08-29 14:59:00,83.4,68.1,29.97,North,349,0.0,0.0,60,0.00,,,0.00,Wunderground v.1.15,2013-08-29 18:59:00,
2013-08-29 15:04:00,84.3,69.4,29.97,NNE,14,0.0,0.0,61,0.00,,,0.00,Wunderground v.1.15,2013-08-29 19:04:00,
2013-08-29 15:09:00,83.9,69.5,29.98,NE,54,0.0,0.0,62,0.00,,,0.00,Wunderground v.1.15,2013-08-29 19:09:00,
2013-08-29 15:15:00,82.8,68.0,29.98,ENE,58,0.0,0.0,61,0.00,,,0.00,Wunderground v.1.15,2013-08-29 19:15:00,
2013-08-29 15:20:00,82.7,68.8,29.98,NE,50,0.0,0.0,63,0.00,,,0.00,Wunderground v.1.15,2013-08-29 19:20:00,
2013-08-29 15:26:00,83.0,70.0,29.98,ENE,67,0.0,0.0,65,0.00,,,0.00,Wunderground v.1.15,2013-08-29 19:26:00,
2013-08-29 15:32:00,83.1,69.2,29.98,NE,52,0.0,0.0,63,0.00,,,0.00,Wunderground v.1.15,2013-08-29 19:32:00,
2013-08-29 15:37:00,82.9,69.0,29.98,NNE,16,0.0,0.0,63,0.00,,,0.00,weatherlink.com 1.10,2013-08-29 19:37:00,
2013-08-29 15:43:00,82.6,69.6,29.97,ENE,62,0.0,0.0,65,0.00,,,0.00,Wunderground v.1.15,2013-08-29 19:43:00,
2013-08-29 15:49:00,82.8,69.8,29.97,NE,56,0.0,0.0,65,0.00,,,0.00,Wunderground v.1.15,2013-08-29 19:49:00,
2013-08-29 15:55:00,83.4,69.5,29.97,North,360,0.0,0.0,63,0.00,,,0.00,Wunderground v.1.15,2013-08-29 19:55:00,
2013-08-29 16:00:00,82.9,69.0,29.97,NE,43,0.0,0.0,63,0.00,,,0.00,Wunderground v.1.15,2013-08-29 20:00:00,
2013-08-29 16:06:00,82.2,69.7,29.97,NE,44,0.0,0.0,66,0.00,,,0.00,Wunderground v.1.15,2013-08-29 20:06:00,
2013-08-29 16:11:00,81.4,68.9,29.97,NE,55,0.0,0.0,66,0.00,,,0.00,Wunderground v.1.15,2013-08-29 20:11:00,
2013-08-29 16:16:00,81.7,69.7,29.98,NE,45,0.0,0.0,67,0.00,,,0.00,Wunderground v.1.15,2013-08-29 20:16:00,
2013-08-29 16:22:00,82.5,70.0,29.98,NE,52,0.0,0.0,66,0.00,,,0.00,weatherlink.com 1.10,2013-08-29 20:22:00,
2013-08-29 16:27:00,82.6,70.1,29.97,NE,45,0.0,0.0,66,0.00,,,0.00,Wunderground v.1.15,2013-08-29 20:27:00,
2013-08-29 16:33:00,82.5,70.4,29.97,NE,54,0.0,0.0,67,0.00,,,0.00,Wunderground v.1.15,2013-08-29 20:33:00,
2013-08-29 16:39:00,82.5,69.5,29.97,NNE,18,0.0,0.0,65,0.00,,,0.00,Wunderground v.1.15,2013-08-29 20:39:00,
2013-08-29 16:44:00,82.7,68.4,29.98,NNE,24,0.0,0.0,62,0.00,,,0.00,Wunderground v.1.15,2013-08-29 20:44:00,
2013-08-29 16:50:00,83.2,68.8,29.97,ENE,68,0.0,0.0,62,0.00,,,0.00,Wunderground v.1.15,2013-08-29 20:50:00,
2013-08-29 16:56:00,82.7,68.8,29.98,NNE,23,0.0,0.0,63,0.00,,,0.00,Wunderground v.1.15,2013-08-29 20:56:00,
2013-08-29 17:01:00,82.7,69.3,29.97,NNW,335,0.0,0.0,64,0.00,,,0.00,Wunderground v.1.15,2013-08-29 21:01:00,
2013-08-29 17:06:00,82.8,68.9,29.97,SSE,149,0.0,0.0,63,0.00,,,0.00,Wunderground v.1.15,2013-08-29 21:06:00,
2013-08-29 17:12:00,82.4,68.5,29.97,NE,50,0.0,0.0,63,0.00,,,0.00,Wunderground v.1.15,2013-08-29 21:12:00,
2013-08-29 17:18:00,82.6,68.3,29.97,North,4,0.0,0.0,62,0.00,,,0.00,Wunderground v.1.15,2013-08-29 21:18:00,
2013-08-29 17:23:00,82.9,69.9,29.97,NNW,343,0.0,0.0,65,0.00,,,0.00,Wunderground v.1.15,2013-08-29 21:23:00,
2013-08-29 17:29:00,82.9,69.9,29.97,NE,56,0.0,0.0,65,0.00,,,0.00,Wunderground v.1.15,2013-08-29 21:29:00,
2013-08-29 17:34:00,82.8,69.4,29.97,NE,37,0.0,0.0,64,0.00,,,0.00,Wunderground v.1.15,2013-08-29 21:34:00,
2013-08-29 17:40:00,82.7,69.7,29.97,NE,34,0.0,0.0,65,0.00,,,0.00,Wunderground v.1.15,2013-08-29 21:40:00,
2013-08-29 17:46:00,82.4,69.0,29.97,NE,37,0.0,1.0,64,0.00,,,0.00,Wunderground v.1.15,2013-08-29 21:46:00,
2013-08-29 17:51:00,82.2,69.3,29.97,NE,53,0.0,2.0,65,0.00,,,0.00,Wunderground v.1.15,2013-08-29 21:51:00,
2013-08-29 17:57:00,81.9,69.4,29.98,NE,54,0.0,2.0,66,0.00,,,0.00,Wunderground v.1.15,2013-08-29 21:57:00,
2013-08-29 18:02:00,81.9,69.4,29.97,NNE,33,0.0,0.0,66,0.00,,,0.00,Wunderground v.1.15,2013-08-29 22:02:00,
2013-08-29 18:08:00,81.7,69.0,29.98,NE,53,0.0,3.0,66,0.00,,,0.00,weatherlink.com 1.10,2013-08-29 22:08:00,
2013-08-29 18:13:00,81.4,69.4,29.97,NE,51,0.0,0.0,67,0.00,,,0.00,Wunderground v.1.15,2013-08-29 22:13:00,
2013-08-29 18:18:00,81.2,68.8,29.97,NE,39,0.0,0.0,66,0.00,,,0.00,Wunderground v.1.15,2013-08-29 22:18:00,
2013-08-29 18:24:00,81.0,69.0,29.97,ENE,58,0.0,0.0,67,0.00,,,0.00,Wunderground v.1.15,2013-08-29 22:24:00,
2013-08-29 18:30:00,80.8,68.4,29.97,NE,49,0.0,0.0,66,0.00,,,0.00,Wunderground v.1.15,2013-08-29 22:30:00,
2013-08-29 18:35:00,80.7,68.7,29.97,NE,53,0.0,0.0,67,0.00,,,0.00,Wunderground v.1.15,2013-08-29 22:35:00,
2013-08-29 18:41:00,80.6,68.6,29.97,NE,51,0.0,0.0,67,0.00,,,0.00,Wunderground v.1.15,2013-08-29 22:41:00,
2013-08-29 18:46:00,80.5,69.0,29.97,NE,41,0.0,0.0,68,0.00,,,0.00,Wunderground v.1.15,2013-08-29 22:46:00,
2013-08-29 18:52:00,80.2,68.7,29.97,NE,53,0.0,0.0,68,0.00,,,0.00,Wunderground v.1.15,2013-08-29 22:52:00,
2013-08-29 18:57:00,80.2,68.7,29.97,NE,53,0.0,0.0,68,0.00,,,0.00,Wunderground v.1.15,2013-08-29 22:57:00,
2013-08-29 19:02:00,80.2,68.2,29.97,NE,53,0.0,0.0,67,0.00,,,0.00,Wunderground v.1.15,2013-08-29 23:02:00,
2013-08-29 19:08:00,80.3,68.8,29.97,NE,53,0.0,0.0,68,0.00,,,0.00,Wunderground v.1.15,2013-08-29 23:08:00,
2013-08-29 19:13:00,79.8,68.7,29.96,NE,53,0.0,0.0,69,0.00,,,0.00,Wunderground v.1.15,2013-08-29 23:13:00,
2013-08-29 19:18:00,79.3,69.5,29.96,NE,54,0.0,0.0,72,0.00,,,0.00,Wunderground v.1.15,2013-08-29 23:18:00,
2013-08-29 19:24:00,78.4,70.0,29.96,NE,54,0.0,0.0,74,0.00,,,0.00,weatherlink.com 1.10,2013-08-29 23:24:00,
2013-08-29 19:30:00,77.7,69.5,29.96,NE,54,0.0,0.0,76,0.00,,,0.00,Wunderground v.1.15,2013-08-29 23:30:00,
2013-08-29 19:35:00,77.1,69.7,29.96,NE,54,0.0,0.0,78,0.00,,,0.00,Wunderground v.1.15,2013-08-29 23:35:00,
2013-08-29 19:41:00,76.1,69.1,29.96,NE,53,0.0,0.0,79,0.00,,,0.00,Wunderground v.1.15,2013-08-29 23:41:00,
2013-08-29 19:47:00,74.6,68.4,29.96,NE,54,0.0,0.0,81,0.00,,,0.00,Wunderground v.1.15,2013-08-29 23:47:00,
2013-08-29 19:52:00,73.6,68.1,29.96,NE,55,0.0,0.0,83,0.00,,,0.00,Wunderground v.1.15,2013-08-29 23:52:00,
2013-08-29 19:59:00,72.6,68.2,29.96,NE,55,0.0,0.0,86,0.00,,,0.00,Wunderground v.1.15,2013-08-29 23:59:00,
2013-08-29 20:04:00,72.1,68.0,29.96,NE,55,0.0,0.0,87,0.00,,,0.00,Wunderground v.1.15,2013-08-30 00:04:00,
2013-08-29 20:09:00,71.7,68.0,29.96,NE,55,0.0,0.0,88,0.00,,,0.00,Wunderground v.1.15,2013-08-30 00:09:00,
2013-08-29 20:15:00,71.2,67.5,29.96,NE,55,0.0,0.0,88,0.00,,,0.00,Wunderground v.1.15,2013-08-30 00:15:00,
2013-08-29 20:20:00,70.7,67.3,29.97,NE,55,0.0,0.0,89,0.00,,,0.00,Wunderground v.1.15,2013-08-30 00:20:00,
2013-08-29 20:26:00,70.2,67.1,29.97,NE,55,0.0,0.0,90,0.00,,,0.00,Wunderground v.1.15,2013-08-30 00:26:00,
2013-08-29 20:32:00,69.8,66.7,29.97,NE,55,0.0,0.0,90,0.00,,,0.00,Wunderground v.1.15,2013-08-30 00:32:00,
2013-08-29 20:38:00,69.4,67.0,29.96,NE,55,0.0,0.0,91,0.00,,,0.00,weatherlink.com 1.10,2013-08-30 00:38:00,
2013-08-29 20:43:00,69.1,66.4,29.97,NE,55,0.0,0.0,91,0.00,,,0.00,Wunderground v.1.15,2013-08-30 00:43:00,
2013-08-29 20:48:00,68.7,66.3,29.97,NE,55,0.0,0.0,92,0.00,,,0.00,Wunderground v.1.15,2013-08-30 00:48:00,
2013-08-29 20:54:00,68.3,65.9,29.97,NE,55,0.0,0.0,92,0.00,,,0.00,Wunderground v.1.15,2013-08-30 00:54:00,
2013-08-29 20:59:00,68.1,65.7,29.97,NE,55,0.0,0.0,92,0.00,,,0.00,Wunderground v.1.15,2013-08-30 00:59:00,
2013-08-29 21:05:00,67.7,65.6,29.98,NE,55,0.0,0.0,93,0.00,,,0.00,Wunderground v.1.15,2013-08-30 01:05:00,
2013-08-29 21:10:00,67.5,65.4,29.98,NE,55,0.0,0.0,93,0.00,,,0.00,Wunderground v.1.15,2013-08-30 01:10:00,
2013-08-29 21:15:00,67.2,65.4,29.98,NE,55,0.0,0.0,94,0.00,,,0.00,Wunderground v.1.15,2013-08-30 01:15:00,
2013-08-29 21:21:00,66.9,65.1,29.98,NE,55,0.0,0.0,94,0.00,,,0.00,Wunderground v.1.15,2013-08-30 01:21:00,
2013-08-29 21:27:00,66.6,64.8,29.98,NE,55,0.0,0.0,94,0.00,,,0.00,Wunderground v.1.15,2013-08-30 01:27:00,
2013-08-29 21:32:00,66.4,64.6,29.98,NE,55,0.0,0.0,94,0.00,,,0.00,Wunderground v.1.15,2013-08-30 01:32:00,
2013-08-29 21:38:00,66.3,65.0,29.98,NE,55,0.0,0.0,95,0.00,,,0.00,weatherlink.com 1.10,2013-08-30 01:38:00,
2013-08-29 21:44:00,66.1,64.6,29.98,NE,55,0.0,0.0,95,0.00,,,0.00,Wunderground v.1.15,2013-08-30 01:44:00,
2013-08-29 21:49:00,65.9,64.4,29.99,NE,55,0.0,0.0,95,0.00,,,0.00,Wunderground v.1.15,2013-08-30 01:49:00,
2013-08-29 21:55:00,65.7,64.2,29.98,NE,55,0.0,0.0,95,0.00,,,0.00,Wunderground v.1.15,2013-08-30 01:55:00,
2013-08-29 22:00:00,65.4,63.9,29.98,NE,55,0.0,0.0,95,0.00,,,0.00,Wunderground v.1.15,2013-08-30 02:00:00,
2013-08-29 22:06:00,65.2,63.7,29.99,NE,55,0.0,0.0,95,0.00,,,0.00,Wunderground v.1.15,2013-08-30 02:06:00,
2013-08-29 22:11:00,65.0,63.5,29.99,NE,55,0.0,0.0,95,0.00,,,0.00,Wunderground v.1.15,2013-08-30 02:11:00,
2013-08-29 22:17:00,64.9,63.4,29.99,NE,55,0.0,0.0,95,0.00,,,0.00,Wunderground v.1.15,2013-08-30 02:17:00,
2013-08-29 22:22:00,64.7,63.2,29.99,NE,55,0.0,0.0,95,0.00,,,0.00,Wunderground v.1.15,2013-08-30 02:22:00,
2013-08-29 22:27:00,64.6,63.1,29.99,NE,55,0.0,0.0,95,0.00,,,0.00,Wunderground v.1.15,2013-08-30 02:27:00,
2013-08-29 22:33:00,64.5,63.0,29.99,NE,55,0.0,0.0,95,0.00,,,0.00,Wunderground v.1.15,2013-08-30 02:33:00,
2013-08-29 22:39:00,64.5,63.0,29.99,NE,55,0.0,0.0,95,0.00,,,0.00,Wunderground v.1.15,2013-08-30 02:39:00,
2013-08-29 22:44:00,64.4,62.9,29.99,NE,55,0.0,0.0,95,0.00,,,0.00,Wunderground v.1.15,2013-08-30 02:44:00,
2013-08-29 22:50:00,64.2,62.7,29.99,NE,55,0.0,0.0,95,0.00,,,0.00,Wunderground v.1.15,2013-08-30 02:50:00,
2013-08-29 22:55:00,64.0,62.5,29.99,NE,55,0.0,0.0,95,0.00,,,0.00,Wunderground v.1.15,2013-08-30 02:55:00,
2013-08-29 23:00:00,63.9,62.4,29.99,NE,55,0.0,0.0,95,0.00,,,0.00,Wunderground v.1.15,2013-08-30 03:00:00,
2013-08-29 23:06:00,63.8,62.3,29.98,NE,55,0.0,0.0,95,0.00,,,0.00,Wunderground v.1.15,2013-08-30 03:06:00,
2013-08-29 23:12:00,63.7,62.5,29.98,NE,55,0.0,0.0,96,0.00,,,0.00,Wunderground v.1.15,2013-08-30 03:12:00,
2013-08-29 23:17:00,63.7,62.5,29.98,NE,55,0.0,0.0,96,0.00,,,0.00,Wunderground v.1.15,2013-08-30 03:17:00,
2013-08-29 23:23:00,63.6,62.4,29.98,NE,55,0.0,0.0,96,0.00,,,0.00,Wunderground v.1.15,2013-08-30 03:23:00,
2013-08-29 23:29:00,63.5,62.3,29.98,NE,55,0.0,0.0,96,0.00,,,0.00,Wunderground v.1.15,2013-08-30 03:29:00,
2013-08-29 23:34:00,63.5,62.3,29.98,NE,55,0.0,0.0,96,0.00,,,0.00,Wunderground v.1.15,2013-08-30 03:34:00,
2013-08-29 23:40:00,63.3,62.0,29.98,NE,55,0.0,0.0,96,0.00,,,0.00,weatherlink.com 1.10,2013-08-30 03:40:00,
2013-08-29 23:45:00,63.3,62.1,29.97,NE,55,0.0,0.0,96,0.00,,,0.00,Wunderground v.1.15,2013-08-30 03:45:00,
2013-08-29 23:51:00,63.2,62.0,29.97,NE,55,0.0,0.0,96,0.00,,,0.00,Wunderground v.1.15,2013-08-30 03:51:00,
2013-08-29 23:56:00,63.0,61.8,29.97,NE,55,0.0,0.0,96,0.00,,,0.00,Wunderground v.1.15,2013-08-30 03:56:00,